createdAt,value
2023-02-13T07:10:34.655Z,1.77
2023-02-13T07:13:06.085Z,1.95
2023-02-13T07:15:34.021Z,3.33
2023-02-13T07:18:01.098Z,5.90
2023-02-13T07:20:29.619Z,8.18
2023-02-13T07:23:00.136Z,4.13
2023-02-13T07:25:27.602Z,3.50
2023-02-13T07:27:54.605Z,2.13
2023-02-13T07:30:21.665Z,4.93
2023-02-13T07:32:48.779Z,4.97
2023-02-13T07:35:15.864Z,6.80
2023-02-13T07:37:42.868Z,6.30
2023-02-13T07:40:10.149Z,7.07
2023-02-13T07:42:37.420Z,4.95
2023-02-13T07:45:06.212Z,5.05
2023-02-13T07:47:34.851Z,8.80
2023-02-13T07:50:06.016Z,9.27
2023-02-13T07:52:33.448Z,4.53
2023-02-13T07:55:03.528Z,6.22
2023-02-13T07:57:31.900Z,7.55
2023-02-13T08:00:02.124Z,6.30
2023-02-13T08:02:29.286Z,4.72
2023-02-13T08:04:59.404Z,7.70
2023-02-13T08:07:26.443Z,9.27
2023-02-13T08:10:12.330Z,6.60
2023-02-13T08:12:39.407Z,7.35
2023-02-13T08:15:06.823Z,4.63
2023-02-13T08:17:33.947Z,5.25
2023-02-13T08:20:00.977Z,6.95
2023-02-13T08:22:28.038Z,6.07
2023-02-13T08:24:55.084Z,7.40
2023-02-13T08:27:22.985Z,5.97
2023-02-13T08:29:55.087Z,7.63
2023-02-13T08:32:22.240Z,7.13
2023-02-13T08:34:49.340Z,6.53
2023-02-13T08:37:16.487Z,5.97
2023-02-13T08:39:43.768Z,5.40
2023-02-13T08:42:15.204Z,6.97
2023-02-13T08:44:43.245Z,6.97
2023-02-13T08:47:10.707Z,5.47
2023-02-13T08:49:37.740Z,5.90
2023-02-13T08:52:05.678Z,8.18
2023-02-13T08:54:35.009Z,7.78
2023-02-13T08:57:02.036Z,6.50
2023-02-13T08:59:29.007Z,8.90
2023-02-13T09:01:56.038Z,5.50
2023-02-13T09:04:23.017Z,6.97
2023-02-13T09:06:51.207Z,7.07
2023-02-13T09:12:03.380Z,9.63
2023-02-13T09:14:30.453Z,11.00
2023-02-13T09:16:57.517Z,6.22
2023-02-13T09:19:25.910Z,9.95
2023-02-13T09:21:52.967Z,9.98
2023-02-13T09:24:20.169Z,7.32
2023-02-13T09:26:47.598Z,6.77
2023-02-13T09:29:14.769Z,7.27
2023-02-13T09:31:42.939Z,9.68
2023-02-13T09:34:10.074Z,7.65
2023-02-13T09:36:37.070Z,9.32
2023-02-13T09:39:04.161Z,11.38
2023-02-13T09:41:32.904Z,12.02
2023-02-13T09:44:35.649Z,11.18
2023-02-13T09:47:24.569Z,10.93
2023-02-13T09:49:53.552Z,12.40
2023-02-13T09:52:20.866Z,8.30
2023-02-13T09:54:47.924Z,9.85
2023-02-13T09:57:14.919Z,10.70
2023-02-13T09:59:47.948Z,11.48
2023-02-13T10:02:22.486Z,6.35
2023-02-13T10:05:22.911Z,8.75
2023-02-13T10:07:54.700Z,7.72
2023-02-13T10:10:21.884Z,9.47
2023-02-13T10:12:55.427Z,7.60
2023-02-13T10:15:37.934Z,10.40
2023-02-13T10:18:11.650Z,15.73
2023-02-13T10:20:45.365Z,20.60
2023-02-13T10:23:22.845Z,21.30
2023-02-13T10:25:49.888Z,25.38
2023-02-13T10:28:21.102Z,22.73
2023-02-13T10:30:53.597Z,24.50
2023-02-13T10:33:26.580Z,17.55
2023-02-13T10:36:02.689Z,16.88
2023-02-13T10:38:31.719Z,13.15
2023-02-13T10:41:17.291Z,14.80
2023-02-13T10:44:02.584Z,14.65
2023-02-13T10:46:44.825Z,15.77
2023-02-13T10:49:19.022Z,13.35
2023-02-13T10:52:00.282Z,19.40
2023-02-13T10:54:30.148Z,13.87
2023-02-13T10:56:57.136Z,12.75
2023-02-13T10:59:43.416Z,10.20
2023-02-13T11:02:24.474Z,14.53
2023-02-13T11:08:31.387Z,9.13
2023-02-13T11:11:00.650Z,8.15
2023-02-13T11:13:29.816Z,11.50
2023-02-13T11:15:58.489Z,10.27
2023-02-13T11:18:27.722Z,7.85
2023-02-13T11:21:34.361Z,5.80
2023-02-13T11:24:01.821Z,6.32
2023-02-13T11:26:32.404Z,4.40
2023-02-13T11:29:05.829Z,5.47
2023-02-13T11:31:32.908Z,5.63
2023-02-13T11:34:25.876Z,8.30
2023-02-13T11:36:54.170Z,4.13
2023-02-13T11:39:22.769Z,4.10
2023-02-13T11:41:53.283Z,4.65
2023-02-13T11:44:26.679Z,5.57
2023-02-13T11:46:54.984Z,4.80
2023-02-13T11:49:23.609Z,7.20
2023-02-13T11:51:52.352Z,7.95
2023-02-13T11:54:45.818Z,5.93
2023-02-13T12:00:43.728Z,9.38
2023-02-13T12:03:23.220Z,6.65
2023-02-13T12:06:15.380Z,7.27
2023-02-13T12:08:44.343Z,6.18
2023-02-13T12:11:36.944Z,5.63
2023-02-13T12:14:06.133Z,5.50
2023-02-13T12:16:44.474Z,7.85
2023-02-13T12:19:30.595Z,6.43
2023-02-13T12:25:49.320Z,8.57
2023-02-13T12:28:39.891Z,4.72
2023-02-13T12:31:29.072Z,5.57
2023-02-13T12:34:15.614Z,7.95
2023-02-13T12:36:48.165Z,6.10
2023-02-13T12:39:34.162Z,10.65
2023-02-13T12:42:08.371Z,8.93
2023-02-13T12:44:38.327Z,8.53
2023-02-13T12:47:14.229Z,6.20
2023-02-13T12:49:50.368Z,6.47
2023-02-13T12:52:32.679Z,5.70
2023-02-13T12:55:12.051Z,8.48
2023-02-13T12:57:58.230Z,5.82
2023-02-13T13:00:25.358Z,5.95
2023-02-13T13:02:59.727Z,4.70
2023-02-13T13:05:50.731Z,6.27
2023-02-13T13:08:21.471Z,5.18
2023-02-13T13:11:18.881Z,10.63
2023-02-13T13:13:55.369Z,10.27
2023-02-13T13:16:25.756Z,5.70
2023-02-13T13:19:12.392Z,6.73
2023-02-13T13:22:07.778Z,9.32
2023-02-13T13:24:46.573Z,7.15
2023-02-13T13:27:25.481Z,7.63
2023-02-13T13:29:59.157Z,7.30
2023-02-13T13:32:26.855Z,5.90
2023-02-13T13:34:55.704Z,6.28
2023-02-13T13:37:31.465Z,6.00
2023-02-13T13:40:13.831Z,5.63
2023-02-13T13:42:50.090Z,5.45
2023-02-13T13:45:29.461Z,10.03
2023-02-13T13:48:15.703Z,9.07
2023-02-13T13:50:44.406Z,4.93
2023-02-13T13:53:31.155Z,7.07
2023-02-13T13:55:58.324Z,7.65
2023-02-13T13:58:36.106Z,6.55
2023-02-13T14:01:18.409Z,8.98
2023-02-13T14:03:46.515Z,6.78
2023-02-13T14:06:14.795Z,11.87
2023-02-13T14:08:41.780Z,6.97
2023-02-13T14:11:27.821Z,5.32
2023-02-13T14:13:54.847Z,8.65
2023-02-13T14:16:40.557Z,7.00
2023-02-13T14:22:39.244Z,6.72
2023-02-13T14:25:07.708Z,6.25
2023-02-13T14:27:43.173Z,12.45
2023-02-13T14:30:29.222Z,11.90
2023-02-13T14:32:56.730Z,76.85
2023-02-13T14:35:25.195Z,95.57
2023-02-13T14:37:58.405Z,129.27
2023-02-13T14:40:41.340Z,68.53
2023-02-13T14:43:20.471Z,60.97
2023-02-13T14:45:58.513Z,47.28
2023-02-13T14:48:33.208Z,43.42
2023-02-13T14:51:00.488Z,48.40
2023-02-13T14:53:30.531Z,54.97
